createdAt,value
2023-02-22T00:02:11.252Z,13.50
2023-02-22T00:04:39.896Z,14.43
2023-02-22T00:07:08.405Z,13.83
2023-02-22T00:09:35.958Z,15.97
2023-02-22T00:12:03.569Z,12.47
2023-02-22T00:14:30.946Z,9.93
2023-02-22T00:17:00.063Z,15.87
2023-02-22T00:19:31.214Z,12.10
2023-02-22T00:21:58.851Z,10.43
2023-02-22T00:24:26.336Z,12.33
2023-02-22T00:26:58.118Z,13.13
2023-02-22T00:29:26.462Z,11.53
2023-02-22T00:31:54.414Z,9.93
2023-02-22T00:34:24.359Z,13.20
2023-02-22T00:36:51.962Z,9.57
2023-02-22T00:39:19.459Z,14.40
2023-02-22T00:41:46.969Z,11.80
2023-02-22T00:44:14.795Z,16.97
2023-02-22T00:46:42.242Z,17.77
2023-02-22T00:49:09.698Z,14.73
2023-02-22T00:51:37.322Z,14.27
2023-02-22T00:54:05.591Z,11.83
2023-02-22T00:56:37.564Z,13.70
2023-02-22T00:59:05.242Z,17.47
2023-02-22T01:01:32.712Z,18.37
2023-02-22T01:04:00.139Z,14.97
2023-02-22T01:06:29.501Z,11.80
2023-02-22T01:08:56.932Z,10.30
2023-02-22T01:11:24.363Z,15.20
2023-02-22T01:13:54.310Z,13.97
2023-02-22T01:16:22.050Z,11.10
2023-02-22T01:18:49.447Z,14.30
2023-02-22T01:21:17.148Z,7.60
2023-02-22T01:23:48.185Z,16.10
2023-02-22T01:26:15.723Z,14.63
2023-02-22T01:28:43.147Z,12.40
2023-02-22T01:31:12.819Z,10.83
2023-02-22T01:33:41.634Z,13.63
2023-02-22T01:36:11.641Z,12.63
2023-02-22T01:38:39.737Z,13.00
2023-02-22T01:41:07.429Z,14.00
2023-02-22T01:43:34.980Z,15.50
2023-02-22T01:46:17.678Z,19.07
2023-02-22T01:48:52.781Z,14.97
2023-02-22T01:51:37.958Z,12.03
2023-02-22T01:54:09.745Z,13.10
2023-02-22T01:56:40.509Z,9.90
2023-02-22T01:59:11.509Z,10.03
2023-02-22T02:01:43.226Z,11.63
2023-02-22T02:04:21.362Z,13.10
2023-02-22T02:06:49.145Z,12.73
2023-02-22T02:09:48.791Z,12.87
2023-02-22T02:12:19.833Z,13.17
2023-02-22T02:14:47.404Z,10.73
2023-02-22T02:17:18.041Z,10.37
2023-02-22T02:20:00.305Z,13.87
2023-02-22T02:23:10.587Z,15.83
2023-02-22T02:26:11.750Z,17.27
2023-02-22T02:29:09.068Z,13.70
2023-02-22T02:32:05.216Z,12.40
2023-02-22T02:34:36.668Z,12.23
2023-02-22T02:37:35.738Z,11.23
2023-02-22T02:40:27.002Z,13.10
2023-02-22T02:43:24.574Z,12.30
2023-02-22T02:46:02.819Z,15.70
2023-02-22T02:48:33.774Z,15.27
2023-02-22T02:51:04.037Z,14.33
2023-02-22T02:53:43.301Z,11.27
2023-02-22T02:56:11.019Z,11.93
2023-02-22T02:58:53.150Z,11.30
2023-02-22T03:01:48.724Z,13.93
2023-02-22T03:05:00.106Z,9.57
2023-02-22T03:08:07.987Z,16.50
2023-02-22T03:11:02.548Z,12.33
2023-02-22T03:14:13.234Z,12.67
2023-02-22T03:17:02.115Z,15.83
2023-02-22T03:19:45.806Z,11.73
2023-02-22T03:22:21.393Z,13.00
2023-02-22T03:24:53.283Z,10.97
2023-02-22T03:27:49.366Z,18.27
2023-02-22T03:30:24.837Z,11.90
2023-02-22T03:33:01.873Z,12.53
2023-02-22T03:35:37.791Z,12.27
2023-02-22T03:38:10.553Z,13.30
2023-02-22T03:40:43.605Z,14.30
2023-02-22T03:43:19.146Z,13.73
2023-02-22T03:45:49.634Z,14.93
2023-02-22T03:48:46.272Z,16.73
2023-02-22T03:51:16.907Z,17.03
2023-02-22T03:53:50.494Z,15.50
2023-02-22T03:56:36.609Z,15.40
2023-02-22T03:59:07.630Z,12.93
2023-02-22T04:01:35.762Z,12.57
2023-02-22T04:04:03.705Z,13.83
2023-02-22T04:09:47.246Z,11.80
2023-02-22T04:12:14.838Z,14.80
2023-02-22T04:14:42.491Z,12.57
2023-02-22T04:17:10.559Z,16.10
2023-02-22T04:19:38.082Z,14.30
2023-02-22T04:22:05.505Z,11.47
2023-02-22T04:24:32.985Z,12.93
2023-02-22T04:27:00.438Z,14.63
2023-02-22T04:29:27.875Z,10.63
2023-02-22T04:31:55.435Z,14.63
2023-02-22T04:34:22.955Z,12.13
2023-02-22T04:36:50.339Z,10.57
2023-02-22T04:39:17.850Z,12.23
2023-02-22T04:41:45.476Z,14.67
2023-02-22T04:44:12.952Z,10.87
2023-02-22T04:46:40.401Z,16.90
2023-02-22T04:49:07.783Z,20.53
2023-02-22T04:51:36.990Z,18.63
2023-02-22T04:54:04.670Z,26.40
2023-02-22T04:56:32.172Z,33.33
2023-02-22T04:58:59.678Z,54.03
2023-02-22T05:01:36.101Z,45.10
2023-02-22T05:04:08.131Z,31.20
2023-02-22T05:06:35.558Z,24.10
2023-02-22T05:09:03.397Z,22.20
2023-02-22T05:11:31.066Z,20.00
2023-02-22T05:13:58.648Z,17.27
2023-02-22T05:16:26.634Z,18.20
2023-02-22T05:18:54.155Z,19.83
2023-02-22T05:21:21.695Z,19.90
2023-02-22T05:23:49.254Z,22.43
2023-02-22T05:26:16.729Z,17.97
2023-02-22T05:28:44.166Z,18.70
2023-02-22T05:31:11.741Z,18.67
2023-02-22T05:33:39.791Z,18.23
2023-02-22T05:36:08.156Z,20.27
2023-02-22T05:38:43.420Z,19.07
2023-02-22T05:41:13.541Z,21.83
2023-02-22T05:43:41.912Z,18.33
2023-02-22T05:46:09.494Z,18.43
2023-02-22T05:48:37.122Z,22.13
2023-02-22T05:51:05.416Z,20.27
2023-02-22T05:53:32.811Z,20.83
2023-02-22T05:56:00.254Z,26.80
2023-02-22T05:58:27.778Z,24.73
2023-02-22T06:00:55.203Z,27.87
2023-02-22T06:03:22.647Z,27.03
2023-02-22T06:05:50.169Z,23.90
2023-02-22T06:08:18.292Z,34.27
2023-02-22T06:10:45.744Z,26.37
2023-02-22T06:13:13.144Z,15.57
2023-02-22T06:15:40.560Z,19.07
2023-02-22T06:18:08.090Z,15.40
2023-02-22T06:20:35.734Z,17.23
2023-02-22T06:23:03.236Z,15.67
2023-02-22T06:25:31.673Z,16.27
2023-02-22T06:28:01.274Z,12.27
2023-02-22T06:30:30.637Z,15.93
2023-02-22T06:32:58.272Z,21.37
2023-02-22T06:35:25.794Z,21.93
2023-02-22T06:37:53.259Z,22.17
2023-02-22T06:40:21.063Z,20.33
2023-02-22T06:42:49.813Z,19.33
2023-02-22T06:45:18.790Z,19.23
2023-02-22T06:47:46.637Z,15.63
2023-02-22T06:50:29.027Z,15.97
2023-02-22T06:52:57.757Z,12.93
2023-02-22T06:55:31.940Z,16.57
2023-02-22T06:58:00.411Z,14.20
2023-02-22T07:00:30.157Z,16.90
2023-02-22T07:02:58.802Z,15.60
2023-02-22T07:05:27.868Z,16.13
2023-02-22T07:08:03.065Z,16.23
2023-02-22T07:10:32.247Z,15.17
2023-02-22T07:13:00.613Z,15.90
2023-02-22T07:15:30.664Z,19.80
2023-02-22T07:17:58.576Z,18.40
2023-02-22T07:20:29.118Z,18.13
2023-02-22T07:22:56.578Z,18.60
2023-02-22T07:25:25.592Z,16.20
2023-02-22T07:27:53.260Z,19.93
2023-02-22T07:30:25.673Z,18.30
2023-02-22T07:32:55.336Z,20.80
2023-02-22T07:35:27.497Z,16.43
2023-02-22T07:37:56.329Z,15.97
2023-02-22T07:40:26.316Z,17.40
2023-02-22T07:43:06.952Z,18.13
2023-02-22T07:45:36.049Z,17.17
2023-02-22T07:48:05.944Z,20.43
2023-02-22T07:50:35.195Z,15.40
2023-02-22T07:53:06.928Z,13.53
2023-02-22T07:55:35.453Z,13.77
2023-02-22T07:58:07.484Z,18.60
2023-02-22T08:00:39.912Z,19.67
2023-02-22T08:03:13.489Z,15.43
2023-02-22T08:05:45.642Z,22.73
2023-02-22T08:08:18.716Z,20.17
2023-02-22T08:10:47.684Z,17.10
2023-02-22T08:13:15.820Z,17.40
2023-02-22T08:15:47.397Z,15.07
2023-02-22T08:18:19.165Z,16.00
2023-02-22T08:20:48.984Z,15.03
2023-02-22T08:23:18.413Z,15.93
2023-02-22T08:25:46.146Z,17.87
2023-02-22T08:28:17.514Z,13.37
2023-02-22T08:30:45.030Z,16.10
2023-02-22T08:33:16.954Z,13.03
2023-02-22T08:35:44.877Z,17.70
2023-02-22T08:38:23.669Z,15.40
2023-02-22T08:40:51.465Z,15.03
2023-02-22T08:43:20.617Z,16.03
2023-02-22T08:45:49.179Z,14.63
2023-02-22T08:48:17.565Z,14.77
2023-02-22T08:50:45.112Z,19.00
2023-02-22T08:53:15.117Z,21.93
2023-02-22T08:55:43.964Z,15.57
2023-02-22T08:58:12.485Z,15.50
2023-02-22T09:00:41.286Z,15.83
2023-02-22T09:03:13.458Z,17.33
2023-02-22T09:05:44.745Z,21.03
2023-02-22T09:08:12.670Z,15.13
2023-02-22T09:10:40.832Z,15.67
2023-02-22T09:13:08.675Z,16.07
2023-02-22T09:15:36.416Z,15.30
2023-02-22T09:18:05.751Z,13.43
2023-02-22T09:20:33.218Z,14.70
2023-02-22T09:23:02.991Z,16.40
2023-02-22T09:25:30.601Z,18.30
2023-02-22T09:27:58.437Z,19.03
2023-02-22T09:30:32.971Z,19.93
2023-02-22T09:33:10.275Z,19.83
2023-02-22T09:35:42.715Z,22.40
2023-02-22T09:38:11.489Z,15.10
2023-02-22T09:40:47.109Z,19.67
2023-02-22T09:43:33.876Z,18.50
2023-02-22T09:46:21.065Z,13.57
2023-02-22T09:49:32.757Z,18.63
2023-02-22T09:52:31.268Z,17.93
2023-02-22T09:55:13.216Z,15.27
2023-02-22T09:57:44.013Z,17.23
2023-02-22T10:00:22.938Z,15.87
2023-02-22T10:03:04.240Z,17.70
2023-02-22T10:05:42.286Z,17.33
2023-02-22T10:08:19.116Z,9.20
2023-02-22T10:10:55.773Z,9.93
2023-02-22T10:13:34.945Z,7.77
2023-02-22T10:16:27.516Z,11.43
2023-02-22T10:19:44.021Z,9.70
2023-02-22T10:22:23.703Z,8.17
2023-02-22T10:25:18.214Z,10.33
2023-02-22T10:28:03.935Z,12.83
2023-02-22T10:30:37.414Z,10.47
2023-02-22T10:33:26.774Z,7.67
2023-02-22T10:35:56.310Z,10.27
2023-02-22T10:38:33.990Z,9.03
2023-02-22T10:41:27.274Z,9.60
2023-02-22T10:43:55.821Z,11.40
2023-02-22T10:46:24.302Z,7.97
2023-02-22T10:49:02.823Z,10.47
2023-02-22T10:51:30.734Z,9.87
2023-02-22T10:54:15.968Z,16.63
2023-02-22T10:56:55.981Z,6.20
2023-02-22T10:59:42.677Z,7.50
2023-02-22T11:02:23.734Z,11.03
2023-02-22T11:04:58.633Z,7.70
2023-02-22T11:07:35.689Z,8.03
2023-02-22T11:10:09.692Z,11.37
2023-02-22T11:12:43.877Z,8.57
2023-02-22T11:15:17.277Z,8.23
2023-02-22T11:17:47.322Z,8.47
2023-02-22T11:20:28.514Z,8.23
2023-02-22T11:23:01.136Z,7.13
2023-02-22T11:25:36.358Z,8.87
2023-02-22T11:28:30.997Z,7.23
2023-02-22T11:31:10.851Z,7.27
2023-02-22T11:33:39.163Z,7.07
2023-02-22T11:36:10.960Z,6.43
2023-02-22T11:38:40.141Z,8.63
2023-02-22T11:41:30.624Z,8.83
2023-02-22T11:44:22.425Z,8.10
2023-02-22T11:46:51.210Z,7.63
2023-02-22T11:49:20.229Z,6.93
2023-02-22T11:52:32.604Z,8.57
2023-02-22T11:55:36.450Z,5.43
2023-02-22T11:58:45.862Z,8.13
2023-02-22T12:01:23.090Z,6.47
2023-02-22T12:04:26.571Z,5.43
2023-02-22T12:07:17.680Z,6.63
2023-02-22T12:09:51.771Z,9.37
2023-02-22T12:12:32.853Z,8.40
2023-02-22T12:15:30.089Z,8.03
2023-02-22T12:18:09.483Z,9.57
2023-02-22T12:20:54.539Z,13.60
2023-02-22T12:23:56.313Z,10.83
2023-02-22T12:26:59.729Z,8.20
2023-02-22T12:29:47.397Z,10.37
2023-02-22T12:32:45.947Z,7.30
2023-02-22T12:35:36.865Z,7.30
2023-02-22T12:38:31.636Z,21.23
2023-02-22T12:41:18.589Z,11.80
2023-02-22T12:44:27.600Z,13.03
2023-02-22T12:46:58.644Z,13.03
2023-02-22T12:49:43.050Z,10.60
2023-02-22T12:52:43.956Z,9.97
2023-02-22T12:55:25.535Z,10.23
2023-02-22T12:58:36.787Z,9.23
2023-02-22T13:01:25.013Z,11.57
2023-02-22T13:03:56.099Z,9.53
2023-02-22T13:07:00.910Z,7.77
2023-02-22T13:09:47.825Z,9.27
2023-02-22T13:12:41.519Z,8.90
2023-02-22T13:15:24.188Z,8.40
2023-02-22T13:18:11.941Z,9.83
2023-02-22T13:21:09.251Z,11.97
2023-02-22T13:24:21.902Z,8.77
2023-02-22T13:27:06.819Z,8.70
2023-02-22T13:29:45.149Z,8.20
2023-02-22T13:32:21.480Z,12.83
2023-02-22T13:34:57.587Z,9.47
2023-02-22T13:37:58.007Z,17.20
2023-02-22T13:40:37.179Z,12.30
2023-02-22T13:43:50.691Z,17.00
2023-02-22T13:46:52.059Z,9.63
2023-02-22T13:49:19.457Z,9.97
2023-02-22T13:51:52.132Z,21.57
2023-02-22T13:54:40.618Z,16.83
2023-02-22T13:57:39.750Z,12.57
2023-02-22T14:00:16.326Z,12.37
2023-02-22T14:03:14.776Z,17.87
2023-02-22T14:05:45.092Z,23.83
2023-02-22T14:08:33.913Z,6.90
2023-02-22T14:11:21.555Z,9.77
2023-02-22T14:14:01.153Z,9.27
2023-02-22T14:16:30.401Z,7.43
2023-02-22T14:19:13.541Z,8.33
2023-02-22T14:22:04.688Z,18.67
2023-02-22T14:24:47.346Z,16.03
2023-02-22T14:27:17.676Z,19.10
2023-02-22T14:30:00.719Z,15.77
2023-02-22T14:32:33.694Z,18.73
2023-02-22T14:35:28.626Z,10.90
2023-02-22T14:38:01.572Z,14.07
2023-02-22T14:40:36.934Z,68.00
2023-02-22T14:43:20.064Z,18.00
2023-02-22T14:45:55.363Z,11.37
2023-02-22T14:48:43.002Z,11.63
2023-02-22T14:51:42.230Z,11.87
2023-02-22T14:54:48.319Z,15.03
2023-02-22T14:58:02.473Z,18.17
2023-02-22T15:00:53.080Z,16.03
2023-02-22T15:03:40.188Z,12.63
2023-02-22T15:06:18.478Z,14.33
2023-02-22T15:08:49.843Z,10.53
2023-02-22T15:11:31.272Z,9.90
2023-02-22T15:14:01.284Z,13.07
2023-02-22T15:16:32.520Z,9.87
2023-02-22T15:19:06.863Z,36.63
2023-02-22T15:21:35.610Z,13.07
2023-02-22T15:24:07.957Z,19.83
2023-02-22T15:26:51.880Z,16.10
2023-02-22T15:29:47.243Z,11.00
2023-02-22T15:32:53.506Z,15.97
2023-02-22T15:35:33.769Z,27.00
2023-02-22T15:38:20.269Z,20.23
2023-02-22T15:40:59.696Z,17.80
2023-02-22T15:43:32.281Z,16.97
2023-02-22T15:46:01.252Z,17.93
2023-02-22T15:48:31.955Z,20.37
2023-02-22T15:51:13.784Z,16.73
2023-02-22T15:53:41.188Z,34.27
2023-02-22T15:56:36.183Z,48.53
2023-02-22T15:59:22.694Z,86.70
2023-02-22T16:01:53.467Z,74.87
2023-02-22T16:04:24.927Z,75.10
2023-02-22T16:07:04.371Z,56.47
2023-02-22T16:09:33.388Z,35.97
2023-02-22T16:12:28.040Z,20.63
2023-02-22T16:14:55.862Z,21.87
2023-02-22T16:17:49.302Z,21.80
2023-02-22T16:20:25.052Z,18.03
2023-02-22T16:22:52.534Z,20.20
2023-02-22T16:25:21.635Z,17.03
2023-02-22T16:28:26.419Z,18.63
2023-02-22T16:31:00.611Z,22.30
2023-02-22T16:33:34.141Z,16.80
2023-02-22T16:36:08.282Z,22.80
2023-02-22T16:38:38.646Z,23.30
2023-02-22T16:41:07.655Z,25.93
2023-02-22T16:43:35.856Z,23.10
2023-02-22T16:46:07.069Z,26.30
2023-02-22T16:48:38.442Z,28.07
2023-02-22T16:51:39.897Z,36.80
2023-02-22T16:54:13.135Z,35.47
2023-02-22T16:56:41.812Z,33.00
2023-02-22T16:59:14.840Z,43.23
2023-02-22T17:01:42.895Z,48.80
2023-02-22T17:04:24.959Z,60.33
2023-02-22T17:06:53.358Z,62.53
2023-02-22T17:09:20.799Z,43.97
2023-02-22T17:11:51.700Z,46.93
2023-02-22T17:14:23.518Z,41.80
2023-02-22T17:16:51.672Z,46.50
2023-02-22T17:19:25.363Z,24.80
2023-02-22T17:21:52.822Z,24.07
2023-02-22T17:24:24.587Z,26.50
2023-02-22T17:26:53.299Z,24.53
2023-02-22T17:29:20.915Z,26.80
2023-02-22T17:31:49.081Z,24.53
2023-02-22T17:34:17.965Z,34.10
2023-02-22T17:36:46.070Z,29.57
2023-02-22T17:39:13.756Z,27.47
2023-02-22T17:41:41.230Z,36.17
2023-02-22T17:44:09.023Z,30.67
2023-02-22T17:46:40.925Z,29.90
2023-02-22T17:49:08.594Z,28.77
2023-02-22T17:51:36.032Z,30.37
2023-02-22T17:54:03.501Z,28.97
2023-02-22T17:56:31.024Z,67.10
2023-02-22T17:58:58.750Z,33.47
2023-02-22T18:01:29.321Z,32.87
2023-02-22T18:04:01.320Z,32.50
2023-02-22T18:06:32.882Z,32.70
2023-02-22T18:09:01.689Z,22.10
2023-02-22T18:11:32.713Z,20.20
2023-02-22T18:14:00.387Z,25.73
2023-02-22T18:16:28.348Z,24.50
2023-02-22T18:18:56.708Z,23.03
2023-02-22T18:21:26.942Z,34.23
2023-02-22T18:23:55.138Z,29.37
2023-02-22T18:26:25.631Z,40.60
2023-02-22T18:28:54.001Z,33.20
2023-02-22T18:31:23.326Z,34.27
2023-02-22T18:33:53.009Z,47.27
2023-02-22T18:36:23.386Z,34.93
2023-02-22T18:38:53.692Z,42.37
2023-02-22T18:41:26.826Z,35.90
2023-02-22T18:43:57.714Z,29.07
2023-02-22T18:46:25.642Z,41.20
2023-02-22T18:48:55.960Z,33.07
2023-02-22T18:51:24.666Z,44.90
2023-02-22T18:53:57.720Z,47.23
2023-02-22T18:56:30.069Z,32.83
2023-02-22T18:59:03.479Z,27.67
2023-02-22T19:01:38.809Z,26.27
2023-02-22T19:04:10.041Z,28.37
2023-02-22T19:06:38.517Z,22.77
2023-02-22T19:09:09.357Z,22.70
2023-02-22T19:11:37.314Z,17.63
2023-02-22T19:14:05.432Z,22.37
2023-02-22T19:16:33.455Z,23.17
2023-02-22T19:19:00.988Z,27.93
2023-02-22T19:21:30.815Z,35.50
2023-02-22T19:23:59.015Z,41.43
2023-02-22T19:26:29.187Z,53.07
2023-02-22T19:28:58.892Z,49.03
2023-02-22T19:31:34.105Z,48.40
2023-02-22T19:34:06.517Z,45.63
2023-02-22T19:36:34.341Z,49.13
2023-02-22T19:39:02.217Z,47.07
2023-02-22T19:41:30.979Z,42.53
2023-02-22T19:43:59.149Z,39.23
2023-02-22T19:46:26.704Z,28.87
2023-02-22T19:48:57.995Z,37.73
2023-02-22T19:51:28.851Z,27.83
2023-02-22T19:54:08.777Z,27.30
2023-02-22T19:56:36.227Z,22.10
2023-02-22T19:59:13.557Z,23.00
2023-02-22T20:01:44.896Z,21.30
2023-02-22T20:04:18.676Z,20.40
2023-02-22T20:06:48.813Z,19.53
2023-02-22T20:09:20.708Z,18.57
2023-02-22T20:11:49.426Z,17.23
2023-02-22T20:14:23.682Z,22.33
2023-02-22T20:16:55.644Z,21.63
2023-02-22T20:19:24.581Z,19.70
2023-02-22T20:21:58.364Z,20.57
2023-02-22T20:24:27.859Z,20.90
2023-02-22T20:26:57.469Z,17.50
2023-02-22T20:29:34.568Z,19.70
2023-02-22T20:32:04.032Z,21.37
2023-02-22T20:34:33.532Z,19.37
2023-02-22T20:37:01.926Z,18.97
2023-02-22T20:39:29.784Z,21.57
2023-02-22T20:42:00.713Z,18.47
2023-02-22T20:44:28.244Z,19.53
2023-02-22T20:46:55.700Z,15.40
2023-02-22T20:49:26.339Z,18.60
2023-02-22T20:51:53.941Z,18.77
2023-02-22T20:54:21.368Z,20.67
2023-02-22T20:56:49.551Z,20.33
2023-02-22T20:59:19.639Z,22.70
2023-02-22T21:01:49.596Z,21.23
2023-02-22T21:04:17.672Z,22.37
2023-02-22T21:06:46.918Z,21.17
2023-02-22T21:09:17.952Z,20.10
2023-02-22T21:11:45.822Z,23.43
2023-02-22T21:14:18.795Z,25.00
2023-02-22T21:16:48.916Z,25.37
2023-02-22T21:19:25.795Z,21.67
2023-02-22T21:22:01.331Z,23.70
2023-02-22T21:24:30.312Z,20.43
2023-02-22T21:27:00.920Z,20.33
2023-02-22T21:29:29.510Z,22.03
2023-02-22T21:31:57.419Z,21.87
2023-02-22T21:34:26.163Z,24.70
2023-02-22T21:36:53.674Z,21.67
2023-02-22T21:39:23.045Z,32.23
2023-02-22T21:41:52.157Z,25.40
2023-02-22T21:44:20.833Z,31.27
2023-02-22T21:46:50.007Z,24.60
2023-02-22T21:49:22.689Z,27.77
2023-02-22T21:51:51.881Z,27.80
2023-02-22T21:54:19.682Z,23.43
2023-02-22T21:56:48.056Z,25.10
2023-02-22T21:59:23.960Z,24.00
2023-02-22T22:01:56.239Z,26.67
2023-02-22T22:04:35.670Z,22.30
2023-02-22T22:07:04.701Z,21.93
2023-02-22T22:09:38.209Z,23.80
2023-02-22T22:12:06.127Z,22.70
2023-02-22T22:14:35.171Z,21.70
2023-02-22T22:17:07.238Z,21.27
2023-02-22T22:19:40.768Z,20.60
2023-02-22T22:22:09.273Z,23.07
2023-02-22T22:24:37.661Z,22.43
2023-02-22T22:27:06.712Z,23.10
2023-02-22T22:29:34.714Z,25.57
2023-02-22T22:32:02.903Z,34.90
2023-02-22T22:34:30.759Z,52.63
2023-02-22T22:36:58.584Z,37.53
2023-02-22T22:39:27.040Z,40.87
2023-02-22T22:41:55.019Z,30.13
2023-02-22T22:44:22.599Z,53.50
2023-02-22T22:46:53.909Z,33.53
2023-02-22T22:49:23.848Z,27.37
2023-02-22T22:51:51.613Z,31.20
2023-02-22T22:54:19.107Z,25.27
2023-02-22T22:56:46.674Z,30.10
2023-02-22T22:59:14.361Z,43.93
2023-02-22T23:01:44.855Z,41.60
2023-02-22T23:04:16.765Z,39.10
2023-02-22T23:06:50.079Z,37.83
2023-02-22T23:09:27.603Z,34.63
2023-02-22T23:12:09.140Z,33.23
2023-02-22T23:14:44.266Z,28.10
2023-02-22T23:17:31.440Z,29.73
2023-02-22T23:20:00.159Z,28.03
2023-02-22T23:22:28.022Z,24.77
2023-02-22T23:24:55.496Z,25.10
2023-02-22T23:27:23.914Z,24.00
2023-02-22T23:29:52.648Z,22.27
2023-02-22T23:32:20.268Z,24.27
2023-02-22T23:34:49.822Z,26.90
2023-02-22T23:37:20.787Z,26.77
2023-02-22T23:39:51.192Z,27.07
2023-02-22T23:42:18.785Z,22.90
2023-02-22T23:44:46.380Z,27.27
2023-02-22T23:47:16.206Z,23.30
2023-02-22T23:49:45.620Z,26.70
2023-02-22T23:52:13.608Z,25.23
2023-02-22T23:54:44.224Z,26.73
2023-02-22T23:57:11.896Z,23.43
2023-02-22T23:59:40.657Z,22.83
